Time;durP1;ratioP1;P1;durP2;ratioP2;P2;SDS_P1;SDS_P2;PMS_P1;PMS_P2;Temp;Humidity;BMP_temperature;BMP_pressure;BME280_temperature;BME280_humidity;BME280_pressure;Samples;Min_cycle;Max_cycle;Signal;HPM_P1;HPM_P2
2023/12/13 00:01:10;;;;;;;14.73;13.23;;;;;;;4.46;100.00;98138.25;5092980;28;20198;-80
2023/12/13 00:03:37;;;;;;;16.93;14.13;;;;;;;4.48;100.00;98140.69;5082478;28;20243;-81
2023/12/13 00:06:07;;;;;;;21.13;16.67;;;;;;;4.49;100.00;98144.94;5100690;28;20251;-79
2023/12/13 00:08:34;;;;;;;19.50;16.03;;;;;;;4.51;100.00;98150.84;5101324;28;20193;-80
2023/12/13 00:11:01;;;;;;;16.30;14.60;;;;;;;4.54;100.00;98147.75;5095243;28;20222;-80
2023/12/13 00:13:34;;;;;;;16.07;14.37;;;;;;;4.46;100.00;98154.16;5097881;28;20188;-78
2023/12/13 00:16:06;;;;;;;15.90;14.20;;;;;;;4.46;100.00;98156.81;5094137;28;20222;-79
2023/12/13 00:18:33;;;;;;;14.67;13.13;;;;;;;4.47;100.00;98147.00;5112759;28;20188;-78
2023/12/13 00:21:04;;;;;;;17.10;15.10;;;;;;;4.46;100.00;98151.50;5095265;28;20663;-78
2023/12/13 00:23:30;;;;;;;17.13;14.87;;;;;;;4.47;100.00;98142.53;5090170;28;20215;-79
2023/12/13 00:25:58;;;;;;;16.90;15.03;;;;;;;4.43;100.00;98142.13;5091701;28;20216;-77
2023/12/13 00:28:25;;;;;;;16.87;15.20;;;;;;;4.45;100.00;98144.56;5093781;28;20261;-77
2023/12/13 00:30:52;;;;;;;16.57;14.77;;;;;;;4.45;100.00;98149.88;5084250;28;20199;-77
2023/12/13 00:33:19;;;;;;;16.23;14.63;;;;;;;4.46;100.00;98153.34;5101461;28;20191;-77
2023/12/13 00:35:46;;;;;;;18.03;16.13;;;;;;;4.42;100.00;98134.41;5088065;28;20324;-77
2023/12/13 00:38:13;;;;;;;18.33;16.53;;;;;;;4.39;100.00;98134.81;5094590;28;20192;-77
2023/12/13 00:40:41;;;;;;;17.47;15.77;;;;;;;4.36;100.00;98133.41;5112457;28;20195;-77
2023/12/13 00:43:09;;;;;;;18.90;16.70;;;;;;;4.37;100.00;98143.00;5111449;28;20195;-78
2023/12/13 00:45:36;;;;;;;18.87;16.97;;;;;;;4.41;100.00;98138.88;5112268;28;20204;-79
2023/12/13 00:48:04;;;;;;;18.70;16.80;;;;;;;4.43;100.00;98134.16;5112539;28;20186;-79
2023/12/13 00:50:30;;;;;;;19.03;16.37;;;;;;;4.46;100.00;98126.81;5112306;28;20189;-77
2023/12/13 00:52:58;;;;;;;18.60;16.70;;;;;;;4.43;100.00;98136.81;5112280;28;20192;-77
2023/12/13 00:55:28;;;;;;;18.90;17.00;;;;;;;4.44;100.00;98134.97;5097607;28;20189;-77
2023/12/13 00:57:55;;;;;;;19.20;17.20;;;;;;;4.46;100.00;98127.63;5103221;28;20196;-78
2023/12/13 01:00:24;;;;;;;19.33;17.03;;;;;;;4.43;100.00;98128.84;5100159;28;20254;-77
2023/12/13 01:02:52;;;;;;;19.47;17.43;;;;;;;4.41;100.00;98130.94;5106620;28;20184;-78
2023/12/13 01:05:19;;;;;;;19.30;17.30;;;;;;;4.42;100.00;98123.78;5112870;28;20242;-77
2023/12/13 01:07:48;;;;;;;20.70;18.40;;;;;;;4.44;100.00;98121.72;5112288;28;20253;-77
2023/12/13 01:10:18;;;;;;;26.03;21.77;;;;;;;4.41;100.00;98122.97;5113297;28;20259;-77
2023/12/13 01:12:47;;;;;;;26.00;21.97;;;;;;;4.39;100.00;98113.59;5116928;28;20195;-77
2023/12/13 01:15:16;;;;;;;24.00;20.97;;;;;;;4.38;100.00;98114.66;5105073;28;20206;-77
2023/12/13 01:17:48;;;;;;;23.47;20.73;;;;;;;4.39;100.00;98110.94;5109314;28;20191;-77
2023/12/13 01:20:18;;;;;;;21.67;19.40;;;;;;;4.40;100.00;98107.28;5109208;28;20183;-79
2023/12/13 01:22:47;;;;;;;21.53;18.77;;;;;;;4.40;100.00;98101.97;5103498;28;20287;-77
2023/12/13 01:25:13;;;;;;;20.90;18.63;;;;;;;4.38;100.00;98106.69;5102204;28;20192;-78
2023/12/13 01:27:43;;;;;;;20.60;18.50;;;;;;;4.39;100.00;98105.66;5100479;28;20223;-77
2023/12/13 01:30:10;;;;;;;21.20;19.00;;;;;;;4.40;100.00;98107.28;5104051;28;20195;-77
2023/12/13 01:32:43;;;;;;;21.47;19.20;;;;;;;4.42;100.00;98097.28;5104797;28;20184;-77
2023/12/13 01:35:18;;;;;;;22.07;18.67;;;;;;;4.44;100.00;98098.66;5094077;28;20252;-77
2023/12/13 01:37:45;;;;;;;21.07;18.87;;;;;;;4.49;100.00;98098.00;5103723;28;20203;-78
2023/12/13 01:40:16;;;;;;;21.63;19.43;;;;;;;4.49;100.00;98084.75;5109311;27;20202;-77
2023/12/13 01:42:43;;;;;;;22.20;19.97;;;;;;;4.51;100.00;98093.31;5100070;28;20215;-77
2023/12/13 01:45:13;;;;;;;21.77;19.47;;;;;;;4.47;100.00;98078.88;5108468;28;20259;-77
2023/12/13 01:47:40;;;;;;;21.87;18.77;;;;;;;4.39;100.00;98069.34;5105115;28;20215;-78
2023/12/13 01:50:14;;;;;;;21.63;19.27;;;;;;;4.40;100.00;98068.31;5106105;28;20191;-77
2023/12/13 01:52:40;;;;;;;23.00;20.67;;;;;;;4.37;100.00;98065.28;5095191;28;20278;-76
2023/12/13 01:55:11;;;;;;;22.77;20.47;;;;;;;4.37;100.00;98060.81;5103549;28;20199;-80
2023/12/13 01:57:40;;;;;;;22.23;19.87;;;;;;;4.37;100.00;98063.47;5098251;28;20192;-76
2023/12/13 02:00:11;;;;;;;22.67;19.83;;;;;;;4.39;100.00;98060.56;5102175;28;20200;-81
2023/12/13 02:02:38;;;;;;;23.13;20.17;;;;;;;4.39;100.00;98058.72;5098754;28;20201;-77
2023/12/13 02:05:07;;;;;;;23.73;21.23;;;;;;;4.38;100.00;98058.97;5084216;28;20188;-77
2023/12/13 02:07:36;;;;;;;25.40;20.53;;;;;;;4.33;100.00;98054.31;5099372;28;20211;-77
2023/12/13 02:10:06;;;;;;;25.03;21.23;;;;;;;4.36;100.00;98061.81;5075525;28;20208;-78
2023/12/13 02:12:38;;;;;;;23.20;20.80;;;;;;;4.39;100.00;98069.34;5104604;28;20312;-78
2023/12/13 02:15:10;;;;;;;23.47;20.97;;;;;;;4.38;100.00;98067.75;5082082;28;20231;-79
2023/12/13 02:17:36;;;;;;;22.47;20.17;;;;;;;4.39;100.00;98063.22;5096776;28;20232;-78
2023/12/13 02:20:06;;;;;;;24.23;21.63;;;;;;;4.35;100.00;98070.81;5107538;28;20207;-79
2023/12/13 02:22:35;;;;;;;25.47;21.67;;;;;;;4.37;100.00;98070.59;5098739;28;20196;-78
2023/12/13 02:25:03;;;;;;;23.60;21.13;;;;;;;4.40;100.00;98064.84;5103259;28;20203;-77
2023/12/13 02:27:30;;;;;;;23.97;21.40;;;;;;;4.42;100.00;98070.75;5098168;28;20238;-78
2023/12/13 02:30:01;;;;;;;25.37;22.20;;;;;;;4.45;100.00;98065.00;5089737;28;20657;-79
2023/12/13 02:32:30;;;;;;;23.57;20.80;;;;;;;4.50;100.00;98062.50;5099190;28;20185;-78
2023/12/13 02:34:57;;;;;;;26.27;23.10;;;;;;;4.49;100.00;98065.38;5097750;28;20585;-78
2023/12/13 02:37:24;;;;;;;24.97;22.27;;;;;;;4.52;100.00;98059.66;5097801;28;20196;-77
2023/12/13 02:39:55;;;;;;;24.83;22.23;;;;;;;4.49;100.00;98046.81;5100245;28;20208;-78
2023/12/13 02:42:27;;;;;;;25.87;23.00;;;;;;;4.49;100.00;98036.19;5094661;28;20217;-80
2023/12/13 02:44:57;;;;;;;25.83;23.13;;;;;;;4.48;100.00;98037.25;5102793;28;20254;-79
2023/12/13 02:47:25;;;;;;;25.07;22.23;;;;;;;4.44;100.00;98044.81;5098474;28;20212;-77
2023/12/13 02:49:52;;;;;;;25.50;22.80;;;;;;;4.44;100.00;98044.81;5097042;28;20196;-80
2023/12/13 02:52:19;;;;;;;26.47;22.73;;;;;;;4.46;100.00;98044.59;5101101;28;20729;-79
2023/12/13 02:54:46;;;;;;;28.33;22.13;;;;;;;4.47;100.00;98049.69;5101319;28;20443;-80
2023/12/13 02:57:15;;;;;;;25.23;22.53;;;;;;;4.42;100.00;98041.59;5102269;28;20729;-79
2023/12/13 02:59:46;;;;;;;25.40;21.90;;;;;;;4.42;100.00;98038.94;5094151;28;20189;-77
2023/12/13 03:02:16;;;;;;;24.23;21.63;;;;;;;4.43;100.00;98038.69;5095612;28;20634;-78
2023/12/13 03:04:51;;;;;;;25.30;22.60;;;;;;;4.39;100.00;98042.81;5094053;28;20198;-77
2023/12/13 03:07:18;;;;;;;25.53;22.47;;;;;;;4.36;100.00;98047.75;5097940;28;20289;-77
2023/12/13 03:09:47;;;;;;;26.70;23.77;;;;;;;4.40;100.00;98049.75;5098735;28;20214;-77
2023/12/13 03:12:14;;;;;;;33.07;26.33;;;;;;;4.41;100.00;98046.09;5098345;28;20188;-79
2023/12/13 03:14:44;;;;;;;26.47;23.70;;;;;;;4.43;100.00;98028.09;5096477;28;20258;-79
2023/12/13 03:17:13;;;;;;;25.73;22.80;;;;;;;4.45;100.00;98025.22;5106678;28;20211;-78
2023/12/13 03:19:46;;;;;;;26.70;23.30;;;;;;;4.44;100.00;98034.22;5087721;28;20271;-77
2023/12/13 03:22:17;;;;;;;23.87;21.23;;;;;;;4.45;100.00;98033.19;5093851;28;20223;-78
2023/12/13 03:24:46;;;;;;;25.50;22.90;;;;;;;4.44;100.00;98035.03;5087327;28;20680;-78
2023/12/13 03:27:19;;;;;;;24.37;20.67;;;;;;;4.47;100.00;98036.44;5099188;28;20215;-79
2023/12/13 03:29:46;;;;;;;24.87;22.13;;;;;;;4.48;100.00;98035.38;5093270;28;20204;-78
2023/12/13 03:32:13;;;;;;;24.53;21.93;;;;;;;4.46;100.00;98028.69;5097317;28;20184;-80
2023/12/13 03:34:42;;;;;;;24.40;21.80;;;;;;;4.47;100.00;98020.53;5104435;28;20219;-77
2023/12/13 03:37:14;;;;;;;24.47;21.73;;;;;;;4.44;100.00;98016.47;5107641;28;20193;-78
2023/12/13 03:39:41;;;;;;;25.33;21.10;;;;;;;4.42;100.00;98018.53;5100368;28;20192;-81
2023/12/13 03:42:11;;;;;;;24.23;21.63;;;;;;;4.38;100.00;98009.41;5093379;28;20565;-79
2023/12/13 03:44:41;;;;;;;24.80;22.10;;;;;;;4.41;100.00;98008.13;5094638;28;20197;-78
2023/12/13 03:47:10;;;;;;;24.43;21.93;;;;;;;4.41;100.00;98008.13;5094850;28;20265;-78
2023/12/13 03:49:37;;;;;;;24.77;21.27;;;;;;;4.39;100.00;98020.78;5094588;28;20253;-78
2023/12/13 03:52:05;;;;;;;24.37;21.87;;;;;;;4.38;100.00;98025.31;5092954;28;20196;-78
2023/12/13 03:54:36;;;;;;;24.43;21.73;;;;;;;4.40;100.00;98012.63;5092910;28;20224;-79
2023/12/13 03:57:04;;;;;;;23.50;21.10;;;;;;;4.35;100.00;98025.72;5094889;28;20188;-80
2023/12/13 03:59:32;;;;;;;23.40;21.00;;;;;;;4.34;100.00;98016.16;5091761;28;20250;-77
2023/12/13 04:01:58;;;;;;;24.63;22.00;;;;;;;4.33;100.00;98005.78;5094320;28;20576;-76
2023/12/13 04:04:26;;;;;;;24.30;21.70;;;;;;;4.34;100.00;98000.25;5092734;28;20195;-78
2023/12/13 04:06:53;;;;;;;22.67;20.30;;;;;;;4.32;100.00;98004.16;5099769;28;20212;-80
2023/12/13 04:09:26;;;;;;;23.57;21.10;;;;;;;4.28;100.00;97998.47;5095802;28;20200;-77
2023/12/13 04:11:56;;;;;;;22.97;20.60;;;;;;;4.30;100.00;97998.25;5091724;28;20200;-79
2023/12/13 04:14:32;;;;;;;24.77;21.63;;;;;;;4.30;100.00;97998.25;5090185;28;20195;-78
2023/12/13 04:17:02;;;;;;;24.53;21.93;;;;;;;4.31;100.00;97991.91;5092594;28;20208;-78
2023/12/13 04:19:43;;;;;;;23.43;21.03;;;;;;;4.28;100.00;98000.31;5088382;28;20188;-78
2023/12/13 04:22:11;;;;;;;23.63;21.23;;;;;;;4.31;100.00;97990.09;5093875;28;20192;-78
2023/12/13 04:24:39;;;;;;;23.63;21.23;;;;;;;4.34;100.00;97992.28;5095156;28;20219;-77
2023/12/13 04:27:06;;;;;;;24.40;22.00;;;;;;;4.34;100.00;97991.47;5095334;28;20219;-80
2023/12/13 04:29:33;;;;;;;23.50;21.17;;;;;;;4.35;100.00;97990.44;5093455;28;20211;-77
2023/12/13 04:32:03;;;;;;;24.50;21.90;;;;;;;4.36;100.00;97992.88;5093696;28;20199;-77
2023/12/13 04:34:30;;;;;;;24.90;22.20;;;;;;;4.36;100.00;97987.59;5093497;28;20204;-77
2023/12/13 04:36:57;;;;;;;25.13;22.43;;;;;;;4.36;100.00;97984.94;5091097;28;20232;-78
2023/12/13 04:39:25;;;;;;;25.37;22.53;;;;;;;4.38;100.00;97984.72;5076609;28;20212;-77
2023/12/13 04:41:52;;;;;;;24.43;21.47;;;;;;;4.37;100.00;97983.91;5101066;28;20202;-77
2023/12/13 04:44:27;;;;;;;25.13;22.53;;;;;;;4.37;100.00;97983.91;5098037;28;20241;-79
2023/12/13 04:46:59;;;;;;;23.33;20.93;;;;;;;4.35;100.00;97985.16;5095044;28;20711;-78
2023/12/13 04:49:33;;;;;;;23.00;20.57;;;;;;;4.35;100.00;97978.00;5095722;28;20206;-78
2023/12/13 04:52:03;;;;;;;22.90;20.33;;;;;;;4.35;100.00;97979.84;5108174;28;20184;-77
2023/12/13 04:54:37;;;;;;;24.13;21.63;;;;;;;4.34;100.00;97970.25;5103949;28;20257;-79
2023/12/13 04:57:05;;;;;;;23.57;21.07;;;;;;;4.28;100.00;97976.47;5112540;28;20199;-77
2023/12/13 04:59:35;;;;;;;23.43;21.03;;;;;;;4.26;100.00;97958.13;5104015;28;20195;-77
2023/12/13 05:02:04;;;;;;;23.17;20.67;;;;;;;4.25;100.00;97955.66;5112516;28;20264;-78
2023/12/13 05:04:36;;;;;;;22.10;19.83;;;;;;;4.26;100.00;97952.81;5102594;28;20260;-77
2023/12/13 05:07:05;;;;;;;22.43;20.17;;;;;;;4.20;100.00;97947.59;5100390;28;20285;-77
2023/12/13 05:09:36;;;;;;;23.17;20.83;;;;;;;4.19;100.00;97944.13;5107558;28;20191;-78
2023/12/13 05:12:06;;;;;;;23.40;21.00;;;;;;;4.17;100.00;97951.47;5106557;28;20199;-78
2023/12/13 05:14:33;;;;;;;22.90;20.43;;;;;;;4.18;100.00;97952.28;5111845;28;20195;-77
2023/12/13 05:17:00;;;;;;;22.63;20.40;;;;;;;4.15;100.00;97950.91;5107693;28;20220;-78
2023/12/13 05:19:26;;;;;;;23.23;20.83;;;;;;;4.17;100.00;97946.19;5112115;28;20183;-78
2023/12/13 05:21:53;;;;;;;22.90;20.60;;;;;;;4.14;100.00;97945.81;5106444;28;20271;-78
2023/12/13 05:24:22;;;;;;;23.27;20.80;;;;;;;4.15;100.00;97953.56;5108680;28;20228;-79
2023/12/13 05:26:55;;;;;;;24.23;21.57;;;;;;;4.13;100.00;97957.44;5109121;28;20207;-78
2023/12/13 05:29:24;;;;;;;23.60;21.10;;;;;;;4.17;100.00;97953.31;5106779;28;20206;-81
2023/12/13 05:31:51;;;;;;;23.30;20.90;;;;;;;4.14;100.00;97951.94;5101613;28;20219;-78
2023/12/13 05:34:22;;;;;;;24.33;21.57;;;;;;;4.18;100.00;97950.44;5094239;28;20208;-79
2023/12/13 05:36:49;;;;;;;25.27;22.67;;;;;;;4.14;100.00;97948.47;5078675;28;20195;-80
2023/12/13 05:39:22;;;;;;;24.10;21.50;;;;;;;4.15;100.00;97955.41;5094817;28;20196;-80
2023/12/13 05:41:56;;;;;;;23.23;20.83;;;;;;;4.18;100.00;97949.63;5099512;28;20195;-79
2023/12/13 05:44:29;;;;;;;23.20;20.83;;;;;;;4.21;100.00;97957.16;5107578;28;20210;-80
2023/12/13 05:47:01;;;;;;;23.23;20.93;;;;;;;4.19;100.00;97948.63;5108949;28;20687;-78
2023/12/13 05:49:28;;;;;;;23.43;21.03;;;;;;;4.16;100.00;97960.44;5100794;28;20378;-80
2023/12/13 05:51:57;;;;;;;23.97;21.37;;;;;;;4.21;100.00;97968.56;5111818;28;20200;-78
2023/12/13 05:54:27;;;;;;;24.20;21.63;;;;;;;4.24;100.00;97972.63;5110450;28;20292;-79
2023/12/13 05:56:59;;;;;;;23.53;20.93;;;;;;;4.25;100.00;97963.63;5112763;27;20203;-77
2023/12/13 05:59:31;;;;;;;23.40;20.93;;;;;;;4.24;100.00;97959.38;5104594;28;20189;-79
2023/12/13 06:01:58;;;;;;;22.80;20.00;;;;;;;4.25;100.00;97972.38;5103239;28;20191;-78
2023/12/13 06:04:25;;;;;;;24.37;20.93;;;;;;;4.26;100.00;97971.38;5105332;28;20188;-79
2023/12/13 06:06:53;;;;;;;22.70;19.53;;;;;;;4.28;100.00;97968.50;5104282;28;20211;-77
2023/12/13 06:09:20;;;;;;;24.23;20.17;;;;;;;4.31;100.00;97968.88;5102371;28;20278;-76
2023/12/13 06:11:50;;;;;;;23.83;20.27;;;;;;;4.34;100.00;97957.00;5111772;28;20195;-76
2023/12/13 06:14:20;;;;;;;23.03;20.13;;;;;;;4.36;100.00;97963.72;5106307;28;20682;-77
2023/12/13 06:16:48;;;;;;;23.47;19.63;;;;;;;4.35;100.00;97967.41;5108776;28;20215;-79
2023/12/13 06:19:15;;;;;;;23.17;20.17;;;;;;;4.34;100.00;97967.59;5112357;28;20245;-77
2023/12/13 06:21:41;;;;;;;22.23;19.07;;;;;;;4.27;100.00;97972.19;5105330;28;20188;-75
2023/12/13 06:24:11;;;;;;;21.20;18.70;;;;;;;4.23;100.00;97968.34;5109044;27;20294;-77
2023/12/13 06:26:38;;;;;;;23.70;20.17;;;;;;;4.23;100.00;97960.41;5102776;27;20267;-76
2023/12/13 06:29:10;;;;;;;21.87;19.50;;;;;;;4.24;100.00;97962.84;5107310;28;20236;-77
2023/12/13 06:31:38;;;;;;;23.20;20.07;;;;;;;4.26;100.00;97957.31;5110736;28;20202;-76
2023/12/13 06:34:05;;;;;;;23.00;20.10;;;;;;;4.26;100.00;97965.25;5110003;28;20185;-76
2023/12/13 06:36:36;;;;;;;24.50;20.40;;;;;;;4.27;100.00;97957.09;5101355;28;20199;-76
2023/12/13 06:39:07;;;;;;;24.33;19.70;;;;;;;4.29;100.00;97951.56;5110229;28;20620;-76
2023/12/13 06:41:37;;;;;;;25.33;20.37;;;;;;;4.24;100.00;97951.44;5113023;28;20245;-76
2023/12/13 06:44:04;;;;;;;23.90;19.93;;;;;;;4.24;100.00;97948.78;5112234;28;20191;-77
2023/12/13 06:46:32;;;;;;;24.87;20.17;;;;;;;4.26;100.00;97947.50;5108379;28;20187;-77
2023/12/13 06:49:04;;;;;;;23.40;19.40;;;;;;;4.24;100.00;97954.06;5086209;28;20230;-78
2023/12/13 06:51:31;;;;;;;24.07;19.80;;;;;;;4.26;100.00;97944.03;5105412;28;20299;-78
2023/12/13 06:53:58;;;;;;;21.97;19.47;;;;;;;4.27;100.00;97945.66;5102937;28;20231;-77
2023/12/13 06:56:28;;;;;;;21.70;19.00;;;;;;;4.29;100.00;97948.94;5104896;28;20195;-78
2023/12/13 06:58:56;;;;;;;23.07;19.57;;;;;;;4.30;100.00;97943.38;5102063;28;20196;-77
2023/12/13 07:01:26;;;;;;;24.83;19.23;;;;;;;4.31;100.00;97946.84;5103883;28;20200;-76
2023/12/13 07:03:53;;;;;;;25.73;20.37;;;;;;;4.34;100.00;97941.91;5094239;28;20196;-77
2023/12/13 07:06:22;;;;;;;22.40;19.03;;;;;;;4.36;100.00;97933.75;5099629;28;20311;-78
2023/12/13 07:08:50;;;;;;;24.27;19.70;;;;;;;4.38;100.00;97948.41;5101276;28;20216;-77
2023/12/13 07:11:22;;;;;;;23.90;19.67;;;;;;;4.39;100.00;97946.53;5098737;28;20212;-77
2023/12/13 07:13:49;;;;;;;23.43;19.60;;;;;;;4.38;100.00;97939.66;5090510;28;20197;-77
2023/12/13 07:16:17;;;;;;;22.53;19.00;;;;;;;4.38;100.00;97937.81;5095853;28;20220;-77
2023/12/13 07:18:45;;;;;;;22.33;18.73;;;;;;;4.42;100.00;97940.81;5102832;28;20184;-78
2023/12/13 07:21:19;;;;;;;24.27;19.17;;;;;;;4.49;100.00;97932.78;5095397;28;20205;-78
2023/12/13 07:23:49;;;;;;;23.47;19.47;;;;;;;4.50;100.00;97934.41;5099252;28;20192;-78
2023/12/13 07:26:33;;;;;;;22.47;18.60;;;;;;;4.51;100.00;97944.00;5098346;28;20251;-77
2023/12/13 07:29:05;;;;;;;23.27;19.20;;;;;;;4.54;100.00;97940.88;5093537;28;20266;-76
2023/12/13 07:31:37;;;;;;;23.33;19.07;;;;;;;4.58;100.00;97940.22;5095969;28;20177;-77
2023/12/13 07:34:05;;;;;;;21.73;18.63;;;;;;;4.59;100.00;97948.97;5096918;28;20665;-77
2023/12/13 07:36:34;;;;;;;24.40;19.37;;;;;;;4.61;100.00;97955.69;5096528;28;20212;-76
2023/12/13 07:39:03;;;;;;;21.67;18.57;;;;;;;4.64;100.00;97934.03;5098882;28;20245;-77
2023/12/13 07:41:36;;;;;;;22.63;18.93;;;;;;;4.65;100.00;97940.97;5098174;28;20214;-79
2023/12/13 07:44:07;;;;;;;24.23;20.70;;;;;;;4.67;100.00;97940.72;5099834;28;20405;-77
2023/12/13 07:46:38;;;;;;;25.57;20.67;;;;;;;4.66;100.00;97947.06;5093354;28;20721;-76
2023/12/13 07:49:08;;;;;;;23.27;20.07;;;;;;;4.68;100.00;97945.00;5095964;28;20243;-77
2023/12/13 07:51:35;;;;;;;23.87;20.00;;;;;;;4.73;100.00;97945.16;5092681;28;20192;-77
2023/12/13 07:54:05;;;;;;;22.97;19.10;;;;;;;4.75;100.00;97953.69;5097017;28;20235;-77
2023/12/13 07:56:35;;;;;;;22.57;19.43;;;;;;;4.75;100.00;97954.50;5093921;28;20219;-77
2023/12/13 07:59:02;;;;;;;23.33;19.63;;;;;;;4.82;100.00;97949.09;5093123;28;20201;-77
2023/12/13 08:01:31;;;;;;;21.37;18.73;;;;;;;4.90;100.00;97948.78;5095328;28;20180;-77
2023/12/13 08:04:02;;;;;;;20.13;17.93;;;;;;;4.99;100.00;97950.13;5090395;28;20210;-79
2023/12/13 08:06:31;;;;;;;25.00;22.30;;;;;;;5.03;100.00;97945.19;5091879;28;20264;-77
2023/12/13 08:09:04;;;;;;;25.00;22.40;;;;;;;5.09;100.00;97945.06;5095528;28;20244;-77
2023/12/13 08:11:31;;;;;;;21.17;18.87;;;;;;;5.15;100.00;97948.69;5098111;28;20196;-78
2023/12/13 08:13:58;;;;;;;20.30;17.93;;;;;;;5.14;100.00;97947.88;5100111;28;20185;-77
2023/12/13 08:16:28;;;;;;;21.17;17.67;;;;;;;5.15;100.00;97946.03;5085363;28;20232;-77
2023/12/13 08:18:57;;;;;;;19.80;17.60;;;;;;;5.22;100.00;97933.47;5092878;28;20199;-77
2023/12/13 08:21:25;;;;;;;20.73;17.20;;;;;;;5.25;100.00;97946.28;5096042;28;20200;-77
2023/12/13 08:23:55;;;;;;;18.97;15.90;;;;;;;5.19;100.00;97950.66;5100928;28;20660;-77
2023/12/13 08:26:25;;;;;;;20.30;17.00;;;;;;;5.27;100.00;97946.88;5096551;28;20204;-76
2023/12/13 08:28:54;;;;;;;23.17;18.17;;;;;;;5.27;100.00;97946.88;5092753;28;20212;-76
2023/12/13 08:31:35;;;;;;;21.07;17.97;;;;;;;5.36;100.00;97944.72;5094167;28;20689;-77
2023/12/13 08:34:02;;;;;;;20.03;16.87;;;;;;;5.40;100.00;97940.56;5099060;28;20232;-78
2023/12/13 08:36:29;;;;;;;19.33;16.90;;;;;;;5.42;100.00;97938.47;5094400;28;20283;-80
2023/12/13 08:38:57;;;;;;;18.23;16.27;;;;;;;5.44;100.00;97934.56;5099737;28;20256;-77
2023/12/13 08:41:27;;;;;;;18.43;16.47;;;;;;;5.42;100.00;97926.00;5094946;28;20192;-79
2023/12/13 08:43:55;;;;;;;18.43;16.47;;;;;;;5.47;100.00;97933.28;5092204;28;20555;-77
2023/12/13 08:46:21;;;;;;;19.57;17.13;;;;;;;5.43;100.00;97930.28;5094600;28;20203;-77
2023/12/13 08:48:49;;;;;;;18.83;16.63;;;;;;;5.44;100.00;97934.56;5091860;28;20307;-78
2023/12/13 08:51:16;;;;;;;19.33;17.23;;;;;;;5.51;100.00;97929.94;5109631;28;20191;-78
2023/12/13 08:53:44;;;;;;;19.07;17.00;;;;;;;5.56;100.00;97942.53;5107695;28;20793;-77
2023/12/13 08:56:18;;;;;;;20.60;16.60;;;;;;;5.60;100.00;97949.06;5097864;28;20652;-77
2023/12/13 08:58:45;;;;;;;22.90;19.33;;;;;;;5.62;100.00;97933.69;5093886;28;20254;-77
2023/12/13 09:01:12;;;;;;;19.57;16.83;;;;;;;5.73;100.00;97931.03;5101554;28;20193;-78
2023/12/13 09:03:40;;;;;;;18.30;16.40;;;;;;;5.84;100.00;97924.09;5094503;28;20245;-77
2023/12/13 09:06:10;;;;;;;17.90;16.00;;;;;;;5.97;100.00;97923.13;5093379;28;20204;-78
2023/12/13 09:08:38;;;;;;;17.97;16.07;;;;;;;6.02;100.00;97923.25;5099509;28;20219;-77
2023/12/13 09:11:06;;;;;;;18.87;16.30;;;;;;;6.11;100.00;97919.19;5092231;28;20241;-77
2023/12/13 09:13:33;;;;;;;17.57;15.47;;;;;;;6.19;100.00;97916.16;5091581;28;20191;-78
2023/12/13 09:16:04;;;;;;;16.43;14.73;;;;;;;6.24;100.00;97915.47;5091842;28;20272;-78
2023/12/13 09:18:34;;;;;;;16.17;14.57;;;;;;;6.27;100.00;97915.00;5091445;28;20211;-78
2023/12/13 09:21:00;;;;;;;17.17;15.47;;;;;;;6.41;100.00;97903.88;5092107;28;20188;-78
2023/12/13 09:23:36;;;;;;;16.43;14.73;;;;;;;6.43;100.00;97896.47;5091721;28;20293;-79
2023/12/13 09:26:05;;;;;;;17.40;15.60;;;;;;;6.48;100.00;97895.78;5095824;28;20234;-77
2023/12/13 09:28:35;;;;;;;16.30;14.70;;;;;;;6.62;100.00;97895.25;5095650;28;20218;-78
2023/12/13 09:31:07;;;;;;;17.50;15.63;;;;;;;6.66;100.00;97895.59;5096087;28;20679;-77
2023/12/13 09:33:34;;;;;;;16.83;15.13;;;;;;;6.69;100.00;97895.13;5095745;28;20221;-77
2023/12/13 09:36:01;;;;;;;17.13;15.33;;;;;;;6.66;100.00;97889.47;5091459;28;20209;-77
2023/12/13 09:38:31;;;;;;;19.17;16.43;;;;;;;6.59;100.00;97885.06;5095284;28;20210;-77
2023/12/13 09:41:02;;;;;;;21.73;18.20;;;;;;;6.57;100.00;97875.72;5095854;28;20184;-77
2023/12/13 09:43:29;;;;;;;18.97;16.90;;;;;;;6.62;100.00;97873.16;5095770;28;20184;-77
2023/12/13 09:46:05;;;;;;;19.77;17.67;;;;;;;6.67;100.00;97869.78;5097921;28;20204;-79
2023/12/13 09:48:34;;;;;;;18.50;16.60;;;;;;;6.79;100.00;97870.53;5096753;28;20298;-79
2023/12/13 09:51:02;;;;;;;19.27;16.80;;;;;;;6.83;100.00;97864.50;5099279;28;20188;-77
2023/12/13 09:53:29;;;;;;;21.97;18.03;;;;;;;6.85;100.00;97882.91;5092374;28;20280;-80
2023/12/13 09:55:57;;;;;;;19.70;17.03;;;;;;;6.96;100.00;97882.84;5102349;28;20327;-76
2023/12/13 09:58:24;;;;;;;21.47;18.13;;;;;;;6.98;100.00;97878.09;5103142;28;20195;-77
2023/12/13 10:00:53;;;;;;;19.30;17.30;;;;;;;7.04;100.00;97876.34;5110700;28;20188;-79
2023/12/13 10:03:22;;;;;;;20.20;17.73;;;;;;;7.10;100.00;97880.69;5106328;28;20200;-79
2023/12/13 10:05:51;;;;;;;20.33;18.10;;;;;;;7.22;100.00;97875.31;5094184;28;20191;-79
2023/12/13 10:08:18;;;;;;;19.30;16.80;;;;;;;7.22;100.00;97878.00;5077444;28;20211;-78
2023/12/13 10:10:48;;;;;;;17.27;15.47;;;;;;;7.17;100.00;97878.72;5096207;28;20200;-77
2023/12/13 10:13:14;;;;;;;16.70;14.83;;;;;;;7.17;100.00;97865.41;5092037;28;20195;-77
2023/12/13 10:15:44;;;;;;;16.17;14.07;;;;;;;7.37;100.00;97860.38;5089028;28;20189;-77
2023/12/13 10:18:11;;;;;;;19.73;15.53;;;;;;;7.44;100.00;97847.72;5094967;28;20294;-77
2023/12/13 10:20:38;;;;;;;18.43;14.57;;;;;;;7.56;100.00;97841.53;5093540;28;20189;-77
2023/12/13 10:23:07;;;;;;;16.23;13.90;;;;;;;7.64;100.00;97841.09;5090399;28;20690;-78
2023/12/13 10:25:38;;;;;;;17.00;13.93;;;;;;;7.74;100.00;97839.41;5087285;28;20287;-79
2023/12/13 10:28:05;;;;;;;15.90;13.37;;;;;;;7.80;100.00;97837.59;5096992;28;20204;-77
2023/12/13 10:30:32;;;;;;;19.10;15.07;;;;;;;7.84;100.00;97831.53;5087460;28;20192;-77
2023/12/13 10:33:00;;;;;;;17.63;14.67;;;;;;;7.93;100.00;97824.72;5093793;28;20261;-77
2023/12/13 10:35:27;;;;;;;16.67;14.20;;;;;;;7.97;100.00;97839.19;5091879;28;20196;-78
2023/12/13 10:37:58;;;;;;;18.37;14.20;;;;;;;7.97;100.00;97828.53;5100337;28;20238;-77
2023/12/13 10:40:25;;;;;;;14.63;12.83;;;;;;;7.91;100.00;97829.50;5098777;28;20219;-78
2023/12/13 10:42:54;;;;;;;14.77;13.27;;;;;;;7.87;100.00;97835.56;5097255;28;20192;-77
2023/12/13 10:45:23;;;;;;;15.27;13.67;;;;;;;7.83;100.00;97832.59;5098758;28;20204;-77
2023/12/13 10:47:57;;;;;;;14.70;13.07;;;;;;;7.79;100.00;97828.78;5092624;28;20204;-78
2023/12/13 10:50:26;;;;;;;14.47;12.97;;;;;;;7.73;100.00;97832.44;5092425;28;20195;-79
2023/12/13 10:52:55;;;;;;;19.67;15.17;;;;;;;7.72;100.00;97832.69;5099596;28;20253;-77
2023/12/13 10:55:22;;;;;;;15.10;13.50;;;;;;;7.64;100.00;97828.59;5100393;28;20188;-77
2023/12/13 10:57:51;;;;;;;16.03;14.33;;;;;;;7.61;100.00;97828.25;5100079;28;20262;-77
2023/12/13 11:00:19;;;;;;;15.83;14.23;;;;;;;7.50;100.00;97822.78;5078911;28;20207;-79
2023/12/13 11:02:52;;;;;;;15.87;14.17;;;;;;;7.50;100.00;97824.63;5090049;28;20200;-77
2023/12/13 11:05:19;;;;;;;14.47;13.07;;;;;;;7.47;100.00;97822.44;5077230;28;20269;-78
2023/12/13 11:07:51;;;;;;;15.77;14.07;;;;;;;7.45;100.00;97819.22;5086948;28;20196;-78
2023/12/13 11:10:22;;;;;;;16.57;14.77;;;;;;;7.47;100.00;97822.44;5087356;28;20262;-79
2023/12/13 11:12:51;;;;;;;17.60;15.70;;;;;;;7.44;100.00;97821.09;5095551;28;20253;-77
2023/12/13 11:15:21;;;;;;;16.97;15.20;;;;;;;7.46;100.00;97818.19;5092608;28;20668;-78
2023/12/13 11:17:59;;;;;;;16.73;15.03;;;;;;;7.46;100.00;97815.53;5093299;28;20239;-79
2023/12/13 11:20:29;;;;;;;17.40;15.30;;;;;;;7.47;100.00;97822.44;5092446;28;20593;-78
2023/12/13 11:22:58;;;;;;;17.17;15.37;;;;;;;7.49;100.00;97829.16;5093085;28;20185;-77
2023/12/13 11:25:37;;;;;;;16.93;15.13;;;;;;;7.52;100.00;97834.00;5093618;28;20199;-78